Pagina principale
METAR-TAF:

METAR-TAF

Aeroporti :

Aeroporto di Cuneo-Levaldigi

Cuneo, Italia

latitudine: 44-32-47N, longitudine: 007-37-20E, altezza: 386 m

Osservazione

Il bollettino è stato emesso 6 ore e 55 minuti fa, alle 05:00 UTC
Vento 5 kt da sud/sud-ovest
Temperature 17°C
Umidità 94%
Pressione 1018 hPa
Visibilità 10 km o più
nessuna nube inferiore a 1500 m e nessun cumulonembo

METAR: LIMZ 210500Z 21005KT CAVOK 17/16 Q1018

Ora: 13:55 (11:55 UTC)

Previsione

Il bollettino è stato emesso 6 ore e 55 minuti fa, alle 05:00 UTC
Previsione valida dal 21 alle 06 UTC al 22 alle 06 UTC
Vento 5 kt da nord/nord-ovest
Visibilità 10 km o più
Nubi sparse ad un'altezza di 7000 ft

TAF: LIMZ 210500Z 2106/2206 34005KT 9999 SCT070

Osservazioni e previsioni meteorologiche di più di 4000 aeroporti (messaggi METAR e TAF).

Le stazioni disponibili sono rappresentate dai dischi gialli e rossi sulla carta.

Puntare il mouse per vedere il nome della stazione.

Clicca sopra per visualizzare le osservazioni e previsioni meteorologiche.

Per cambiare la mappa : fare clic sui pulsanti verdi con una croce nera per ingrandire, il pulsante verde con un trattino per diminuire, o sulla freccia verde per le mappe adiacenti.


METAR-TAF: